Time;durP1;ratioP1;P1;durP2;ratioP2;P2;SDS_P1;SDS_P2;PMS_P1;PMS_P2;Temp;Humidity;BMP_temperature;BMP_pressure;BME280_temperature;BME280_humidity;BME280_pressure;Samples;Min_cycle;Max_cycle;Signal;HPM_P1;HPM_P2
2024/04/01 00:02:30;;;;;;;195.73;57.58;;;7.70;99.90;;;6.42;100.00;99365.53;4971608;28;20038;-83
2024/04/01 00:04:56;;;;;;;177.80;56.60;;;;;;;6.45;100.00;99357.53;4992143;28;20030;-83
2024/04/01 00:07:30;;;;;;;187.98;57.65;;;;;;;6.49;100.00;99363.47;4998271;28;20037;-84
2024/04/01 00:09:58;;;;;;;149.15;51.70;;;7.80;99.90;;;6.48;100.00;99369.59;4989675;28;20045;-85
2024/04/01 00:12:24;;;;;;;143.75;52.90;;;7.80;99.90;;;6.54;100.00;99382.38;4996756;28;20026;-83
2024/04/01 00:15:14;;;;;;;148.80;56.38;;;7.80;99.90;;;6.57;100.00;99390.91;4974116;28;20554;-84
2024/04/01 00:17:43;;;;;;;160.20;55.13;;;7.90;99.90;;;6.62;100.00;99403.75;4994508;28;20037;-84
2024/04/01 00:20:09;;;;;;;144.88;53.22;;;7.90;99.90;;;6.66;100.00;99410.50;4976738;28;20037;-83
2024/04/01 00:22:41;;;;;;;161.20;54.38;;;7.90;99.90;;;6.70;100.00;99406.81;4976263;28;20027;-81
2024/04/01 00:28:03;;;;;;;157.57;53.78;;;8.00;99.90;;;6.85;100.00;99384.25;4327605;26;20069;-83
2024/04/01 00:30:34;;;;;;;179.77;56.45;;;8.10;99.90;;;6.89;100.00;99369.22;5024906;28;20061;-83
2024/04/01 00:33:22;;;;;;;174.68;59.55;;;8.10;99.90;;;6.92;100.00;99359.44;5013753;28;20080;-84
2024/04/01 00:35:52;;;;;;;178.23;58.72;;;;;;;6.94;100.00;99362.81;4973696;28;20693;-84
2024/04/01 00:38:43;;;;;;;202.98;59.50;;;;;;;6.97;100.00;99344.31;4972908;28;20051;-84
2024/04/01 00:41:11;;;;;;;171.18;58.70;;;8.20;99.90;;;7.00;100.00;99340.72;4971297;28;20081;-84
2024/04/01 00:44:01;;;;;;;170.10;57.75;;;;;;;7.03;100.00;99324.00;4959337;28;20086;-83
2024/04/01 00:46:42;;;;;;;181.73;58.17;;;8.20;99.90;;;7.03;100.00;99314.38;4901290;29;20072;-84
2024/04/01 00:49:21;;;;;;;175.20;56.00;;;8.30;99.90;;;7.05;100.00;99304.66;4911711;29;20126;-84
2024/04/01 00:52:02;;;;;;;196.68;63.00;;;8.30;99.90;;;7.06;100.00;99302.88;4896236;29;20124;-83
2024/04/01 00:54:42;;;;;;;186.85;61.08;;;8.30;99.90;;;7.09;100.00;99308.81;4921254;29;20036;-84
2024/04/01 00:57:22;;;;;;;192.57;62.33;;;8.30;99.90;;;7.11;100.00;99321.81;4921078;29;20045;-85
2024/04/01 01:02:44;;;;;;;178.23;60.92;;;;;;;7.18;100.00;99331.84;4885572;29;20041;-83
2024/04/01 01:08:04;;;;;;;158.55;58.88;;;;;;;7.29;100.00;99326.03;3396407;26;20119;-82
2024/04/01 01:13:44;;;;;;;198.32;58.70;;;8.60;99.90;;;7.41;100.00;99308.81;5091050;28;20048;-83
2024/04/01 01:16:36;;;;;;;181.43;60.92;;;8.60;99.90;;;7.43;100.00;99313.94;5081016;28;20514;-83
2024/04/01 01:19:14;;;;;;;199.07;62.75;;;8.60;99.90;;;7.44;100.00;99306.00;5025087;28;20038;-84
2024/04/01 01:21:43;;;;;;;223.32;67.10;;;8.70;99.90;;;7.51;100.00;99320.44;5031706;28;20045;-84
2024/04/01 01:28:05;;;;;;;239.35;65.10;;;8.70;99.90;;;7.50;100.00;99286.47;5217617;22;20052;-84
2024/04/01 01:34:24;;;;;;;365.48;71.35;;;;;;;7.53;100.00;99260.09;5046412;28;20049;-84
2024/04/01 01:37:03;;;;;;;296.83;65.97;;;8.80;99.90;;;7.53;100.00;99262.72;5039940;28;20063;-84
2024/04/01 01:39:31;;;;;;;549.58;75.32;;;;;;;7.56;100.00;99286.97;5043575;28;20172;-85
2024/04/01 01:42:42;;;;;;;264.38;67.03;;;8.80;99.90;;;7.59;100.00;99320.00;5058325;28;20092;-84
2024/04/01 01:45:42;;;;;;;237.93;65.40;;;8.80;99.90;;;7.62;100.00;99361.72;4942380;28;20036;-84
2024/04/01 01:48:34;;;;;;;360.40;63.75;;;8.80;99.90;;;7.61;100.00;99367.91;4943357;29;20091;-83
2024/04/01 01:51:02;;;;;;;245.00;63.55;;;;;;;7.62;100.00;99350.41;4950417;28;20043;-84
2024/04/01 01:53:52;;;;;;;767.75;82.47;;;8.80;99.90;;;7.65;100.00;99334.53;4940683;29;20043;-83
2024/04/01 01:56:23;;;;;;;236.93;65.38;;;8.90;99.90;;;7.66;100.00;99338.84;4923001;29;20043;-84
2024/04/01 02:02:14;;;;;;;394.55;70.15;;;;;;;7.76;100.00;99342.63;4862785;29;20045;-84
2024/04/01 02:07:34;;;;;;;447.67;68.25;;;9.00;99.90;;;7.81;100.00;99353.69;5042946;22;20045;-83
2024/04/01 02:10:23;;;;;;;271.23;67.65;;;9.00;99.90;;;7.80;100.00;99352.00;5040539;28;20026;-83
2024/04/01 02:12:51;;;;;;;618.25;76.88;;;;;;;7.83;100.00;99341.34;5028104;28;20058;-83
2024/04/01 02:15:31;;;;;;;601.92;77.60;;;;;;;7.86;100.00;99348.19;5059066;28;20029;-84
2024/04/01 02:18:33;;;;;;;602.85;73.68;;;9.10;99.90;;;7.85;100.00;99336.03;5036643;28;20036;-84
2024/04/01 02:21:35;;;;;;;;;;;;;;;;;;;;;
2024/04/01 02:24:01;;;;;;;903.03;73.90;;;;;;;7.85;100.00;99342.09;5036503;28;20105;-84
2024/04/01 02:31:44;;;;;;;1573.93;113.20;;;;;;;7.86;100.00;99346.44;5035027;28;20057;-83
2024/04/01 02:34:12;;;;;;;1178.22;92.03;;;9.10;99.90;;;7.86;100.00;99356.91;5034136;28;20029;-83
2024/04/01 02:37:18;;;;;;;;;;;;;;;;;;;;;
2024/04/01 02:40:05;;;;;;;831.53;80.57;;;;;;;7.82;100.00;99342.28;5021358;28;20060;-83
2024/04/01 02:42:42;;;;;;;482.02;73.32;;;9.00;99.90;;;7.79;100.00;99331.97;5017338;28;20049;-82
2024/04/01 02:45:11;;;;;;;1529.22;113.07;;;9.00;99.90;;;7.85;100.00;99338.63;5002067;28;20079;-84
2024/04/01 02:47:52;;;;;;;779.10;83.72;;;9.10;99.90;;;7.83;100.00;99343.13;5017093;28;20046;-83
2024/04/01 02:50:54;;;;;;;365.83;69.65;;;;;;;7.84;100.00;99343.03;5022047;28;20080;-83
2024/04/01 02:53:23;;;;;;;619.65;73.70;;;9.00;99.90;;;7.84;100.00;99314.22;5017607;28;20063;-83
2024/04/01 02:55:52;;;;;;;353.65;66.22;;;;;;;7.86;100.00;99319.34;5016153;28;20033;-83
2024/04/01 02:59:13;;;;;;;305.00;65.03;;;;;;;7.88;100.00;99307.84;5017830;28;20037;-82
2024/04/01 03:01:23;;;;;;;608.33;67.75;;;;;;;7.89;100.00;99295.59;5012703;28;20034;-84
2024/04/01 03:04:00;;;;;;;365.60;66.78;;;9.10;99.90;;;7.87;100.00;99290.44;5018152;28;20045;-83
2024/04/01 03:06:41;;;;;;;447.83;65.28;;;9.10;99.90;;;7.85;100.00;99305.41;5106770;23;20079;-82
2024/04/01 03:09:54;;;;;;;499.83;69.75;;;9.00;99.90;;;7.76;100.00;99311.19;5095398;28;20050;-83
2024/04/01 03:12:23;;;;;;;1236.22;94.10;;;;;;;7.72;100.00;99315.75;5081004;28;20036;-83
2024/04/01 03:15:16;;;;;;;557.30;71.57;;;;;;;7.69;100.00;99323.81;5093071;28;20032;-84
2024/04/01 03:17:43;;;;;;;578.85;67.97;;;8.90;99.90;;;7.67;100.00;99314.34;5066500;28;20032;-83
2024/04/01 03:23:31;;;;;;;565.70;67.65;;;8.90;99.90;;;7.67;100.00;99328.28;5011981;28;20030;-83
2024/04/01 03:28:53;;;;;;;327.83;61.72;;;8.90;99.90;;;7.69;100.00;99322.94;5091334;22;20057;-83
2024/04/01 03:31:44;;;;;;;720.88;71.18;;;8.90;99.90;;;7.71;100.00;99336.78;5013185;28;20044;-84
2024/04/01 03:34:13;;;;;;;392.65;62.40;;;8.90;99.90;;;7.72;100.00;99334.09;5030221;28;20046;-84
2024/04/01 03:37:11;;;;;;;808.92;79.13;;;8.90;99.90;;;7.75;100.00;99346.16;5018623;28;20033;-82
2024/04/01 03:42:32;;;;;;;553.45;70.35;;;;;;;7.74;100.00;99344.50;5009302;28;20058;-84
2024/04/01 03:47:54;;;;;;;528.60;67.28;;;8.90;99.90;;;7.71;100.00;99344.66;5094693;23;20531;-84
2024/04/01 03:51:12;;;;;;;601.17;66.93;;;;;;;7.71;100.00;99347.28;5003923;28;20121;-83
2024/04/01 03:54:30;;;;;;;503.10;66.57;;;8.90;99.90;;;7.70;100.00;99335.13;4934677;29;20056;-83
2024/04/01 03:57:13;;;;;;;296.80;57.33;;;8.90;99.90;;;7.70;100.00;99346.44;4836175;29;20057;-84
2024/04/01 04:03:02;;;;;;;1496.28;104.00;;;;;;;7.74;100.00;99337.47;4751963;30;20664;-83
2024/04/01 04:06:00;;;;;;;658.15;70.68;;;9.00;99.90;;;7.71;100.00;99328.94;4818179;23;20069;-84
2024/04/01 04:08:32;;;;;;;508.65;63.03;;;8.90;99.90;;;7.70;100.00;99335.94;5038768;28;20049;-83
2024/04/01 04:11:50;;;;;;;632.30;68.90;;;8.90;99.90;;;7.69;100.00;99331.66;5045996;28;20032;-84
2024/04/01 04:14:32;;;;;;;662.38;70.32;;;8.90;99.90;;;7.64;100.00;99324.97;5041983;28;20041;-84
2024/04/01 04:17:34;;;;;;;827.13;76.05;;;;;;;7.59;100.00;99317.38;5031935;28;20030;-83
2024/04/01 04:20:21;;;;;;;536.67;64.03;;;8.80;99.90;;;7.50;100.00;99308.28;5037288;28;20100;-83
2024/04/01 04:23:00;;;;;;;1172.97;91.30;;;8.70;99.90;;;7.43;100.00;99306.94;5007688;28;20034;-83
2024/04/01 04:25:51;;;;;;;826.33;78.53;;;8.70;99.90;;;7.32;100.00;99298.81;5068904;22;20020;-82
2024/04/01 04:28:34;;;;;;;416.67;63.60;;;8.60;99.90;;;7.32;100.00;99309.28;5050545;28;20053;-83
2024/04/01 04:31:03;;;;;;;478.90;64.25;;;8.60;99.90;;;7.33;100.00;99305.75;5073641;28;20109;-84
2024/04/01 04:33:54;;;;;;;475.48;63.42;;;8.60;99.90;;;7.35;100.00;99314.38;5060196;28;20044;-83
2024/04/01 04:36:24;;;;;;;352.40;60.30;;;;;;;7.34;100.00;99312.69;5063444;28;20024;-83
2024/04/01 04:42:12;;;;;;;315.27;54.65;;;;;;;7.37;100.00;99300.25;4884207;29;20055;-84
2024/04/01 04:47:52;;;;;;;283.63;54.15;;;;;;;7.30;100.00;99288.47;5054683;22;20064;-83
2024/04/01 04:50:24;;;;;;;229.98;53.78;;;8.50;99.90;;;7.32;100.00;99293.59;5018955;28;20097;-83
2024/04/01 04:52:53;;;;;;;277.90;54.05;;;8.50;99.90;;;7.31;100.00;99297.97;5026628;28;20052;-84
2024/04/01 04:56:04;;;;;;;673.53;69.28;;;;;;;7.30;100.00;99290.22;5028407;28;20029;-83
2024/04/01 04:58:41;;;;;;;276.98;55.03;;;;;;;7.29;100.00;99292.00;5042042;28;20044;-83
2024/04/01 05:01:53;;;;;;;213.52;52.13;;;8.50;99.90;;;7.30;100.00;99284.97;5028393;28;20029;-83
2024/04/01 05:04:22;;;;;;;359.10;54.70;;;8.50;99.90;;;7.31;100.00;99276.19;5013737;28;20042;-84
2024/04/01 05:07:06;;;;;;;633.88;63.35;;;8.50;99.90;;;7.30;100.00;99277.13;5045464;28;20052;-83
2024/04/01 05:09:45;;;;;;;662.88;67.13;;;;;;;7.23;100.00;99271.38;4997189;28;20057;-83
2024/04/01 05:12:23;;;;;;;472.27;59.55;;;8.40;99.90;;;7.04;100.00;99257.63;5024683;28;20050;-84
2024/04/01 05:15:12;;;;;;;529.65;61.75;;;8.40;99.90;;;7.00;100.00;99256.97;5011394;28;20033;-82
2024/04/01 05:17:43;;;;;;;315.23;53.20;;;8.30;99.90;;;6.99;100.00;99252.66;5003014;28;20033;-84
2024/04/01 05:20:33;;;;;;;629.40;65.53;;;;;;;6.95;100.00;99254.63;5027563;28;20034;-83
2024/04/01 05:23:04;;;;;;;506.13;61.33;;;8.20;99.90;;;6.94;100.00;99250.28;5022154;28;20034;-83
2024/04/01 05:26:13;;;;;;;793.70;71.05;;;;;;;6.86;100.00;99256.88;5025222;28;20034;-83
2024/04/01 05:29:12;;;;;;;694.08;66.60;;;8.10;99.90;;;6.85;100.00;99242.13;5002829;28;20105;-83
2024/04/01 05:32:02;;;;;;;369.75;53.60;;;8.10;99.90;;;6.83;100.00;99241.34;4969749;28;20064;-83
2024/04/01 05:35:05;;;;;;;844.65;76.28;;;8.10;99.90;;;6.72;100.00;99245.41;4969814;28;20107;-83
2024/04/01 05:37:43;;;;;;;343.45;54.80;;;;;;;6.73;100.00;99248.84;4999828;28;20480;-82
2024/04/01 05:40:32;;;;;;;317.65;52.47;;;8.00;99.90;;;6.75;100.00;99241.75;4988779;28;20045;-83
2024/04/01 05:43:03;;;;;;;316.08;46.72;;;8.00;99.90;;;6.78;100.00;99249.44;4976395;28;20042;-83
2024/04/01 05:46:07;;;;;;;;;;;;;;;;;;;;;
2024/04/01 05:48:34;;;;;;;325.90;43.63;;;8.00;99.90;;;6.74;100.00;99256.63;4980567;28;20038;-83
2024/04/01 05:51:03;;;;;;;265.17;43.25;;;8.00;99.90;;;6.74;100.00;99250.56;4967175;28;20045;-83
2024/04/01 05:53:44;;;;;;;232.85;46.75;;;;;;;6.77;100.00;99253.00;4962149;28;20046;-83
2024/04/01 05:59:34;;;;;;;286.65;42.60;;;8.10;99.90;;;6.83;100.00;99265.75;4925534;29;20047;-83
2024/04/01 06:02:32;;;;;;;299.52;40.38;;;;;;;6.83;100.00;99264.91;4910759;29;20128;-82
2024/04/01 06:08:03;;;;;;;156.90;41.22;;;8.10;99.90;;;6.86;100.00;99275.19;4953650;28;20089;-83
2024/04/01 06:10:42;;;;;;;262.42;46.72;;;8.10;99.90;;;6.89;100.00;99275.88;4947369;28;20043;-84
2024/04/01 06:13:32;;;;;;;;;;;;;;;;;;;;;
2024/04/01 06:16:03;;;;;;;188.20;45.10;;;;;;;6.83;100.00;99278.00;4961797;28;20106;-82
2024/04/01 06:18:44;;;;;;;229.85;42.30;;;8.10;99.90;;;6.84;100.00;99274.44;4958296;28;20027;-83
2024/04/01 06:21:42;;;;;;;164.13;41.17;;;;;;;6.84;100.00;99266.59;4975336;28;20113;-83
2024/04/01 06:24:33;;;;;;;242.07;42.95;;;8.10;99.90;;;6.83;100.00;99262.28;4962474;28;20053;-82
2024/04/01 06:27:04;;;;;;;172.50;41.20;;;;;;;6.84;100.00;99262.19;4951622;28;20049;-82
2024/04/01 06:30:42;;;;;;;141.93;41.88;;;8.10;99.90;;;6.87;100.00;99250.69;4962708;28;20042;-84
2024/04/01 06:33:52;;;;;;;166.77;40.95;;;;;;;6.93;100.00;99250.38;4851682;29;20607;-83
2024/04/01 06:36:24;;;;;;;291.73;47.05;;;8.20;99.90;;;6.99;100.00;99250.03;4858007;29;20040;-84
2024/04/01 06:39:04;;;;;;;169.90;42.53;;;;;;;7.05;100.00;99254.09;4878740;29;20086;-83
2024/04/01 06:41:51;;;;;;;177.13;40.30;;;8.30;99.90;;;7.11;100.00;99259.84;4895156;29;20044;-83
2024/04/01 06:45:04;;;;;;;235.75;43.55;;;8.30;99.90;;;7.15;100.00;99243.03;4865321;29;20060;-83
2024/04/01 06:47:33;;;;;;;168.63;40.47;;;;;;;7.24;100.00;99251.31;4871520;29;20053;-83
2024/04/01 06:49:59;;;;;;;139.90;38.55;;;8.40;99.90;;;7.26;100.00;99245.03;4916221;22;20023;-80
2024/04/01 06:52:33;;;;;;;172.73;41.42;;;8.50;99.90;;;7.27;100.00;99249.34;5012420;28;20027;-79
2024/04/01 06:55:01;;;;;;;225.15;41.60;;;8.50;99.90;;;7.26;100.00;99254.69;5023597;28;20069;-80
2024/04/01 06:57:27;;;;;;;184.75;40.58;;;8.40;99.90;;;7.21;100.00;99259.31;4999130;28;20034;-80
2024/04/01 07:02:28;;;;;;;181.65;32.97;;;8.30;99.90;;;7.01;100.00;99268.28;5028907;22;20057;-80
2024/04/01 07:04:54;;;;;;;180.00;36.65;;;8.30;99.90;;;7.01;100.00;99279.59;5005914;28;20124;-80
2024/04/01 07:07:20;;;;;;;144.48;31.98;;;8.30;99.90;;;7.00;100.00;99277.91;4999169;28;20048;-79
2024/04/01 07:10:15;;;;;;;136.27;34.88;;;8.20;99.90;;;6.95;100.00;99269.44;5019692;22;20021;-80
2024/04/01 07:12:54;;;;;;;114.38;35.92;;;8.20;99.90;;;6.93;100.00;99268.69;4953825;28;20070;-80
2024/04/01 07:15:31;;;;;;;111.85;37.53;;;8.20;99.90;;;6.96;100.00;99276.38;4954298;28;20509;-80
2024/04/01 07:17:57;;;;;;;124.88;36.58;;;8.20;99.90;;;6.99;100.00;99290.13;4969177;28;20586;-79
2024/04/01 07:20:24;;;;;;;114.38;33.65;;;;;;;6.98;100.00;99298.09;4989056;23;20046;-80
2024/04/01 07:23:04;;;;;;;108.95;32.40;;;8.20;99.90;;;6.89;100.00;99306.41;5029151;28;20038;-79
2024/04/01 07:25:54;;;;;;;135.48;33.63;;;8.20;99.90;;;6.90;100.00;99308.13;5012754;28;20030;-79
2024/04/01 07:28:55;;;;;;;140.52;36.25;;;8.20;99.90;;;6.89;100.00;99302.03;5030425;28;20419;-80
2024/04/01 07:31:33;;;;;;;119.35;37.85;;;;;;;6.92;100.00;99296.63;5037122;28;20064;-80
2024/04/01 07:34:15;;;;;;;131.43;39.00;;;;;;;6.96;100.00;99292.09;5019561;28;20148;-80
2024/04/01 07:36:40;;;;;;;141.65;42.08;;;8.30;99.90;;;7.04;100.00;99289.91;5021869;28;20052;-80
2024/04/01 07:39:26;;;;;;;;;;;;;;;;;;;;;
2024/04/01 07:41:53;;;;;;;118.03;38.08;;;8.40;99.90;;;7.20;100.00;99282.03;5051350;23;20044;-80
2024/04/01 07:44:19;;;;;;;122.45;38.30;;;8.40;99.90;;;7.27;100.00;99279.91;5025861;28;20076;-80
2024/04/01 07:46:45;;;;;;;113.82;41.08;;;8.50;99.90;;;7.33;100.00;99276.97;5012879;28;20037;-81
2024/04/01 07:49:12;;;;;;;106.05;40.88;;;8.50;99.90;;;7.41;100.00;99280.00;5025973;28;20030;-80
2024/04/01 07:51:43;;;;;;;88.43;37.70;;;8.60;99.90;;;7.51;100.00;99273.28;5006295;28;20046;-80
2024/04/01 07:54:09;;;;;;;99.53;42.20;;;8.70;99.90;;;7.63;100.00;99279.59;5004596;28;20033;-79
2024/04/01 07:56:36;;;;;;;100.15;41.17;;;8.80;99.90;;;7.74;100.00;99264.09;5021524;28;20119;-79
2024/04/01 07:59:02;;;;;;;114.05;43.85;;;8.90;99.90;;;7.80;100.00;99260.28;5022329;28;20044;-80
2024/04/01 08:01:36;;;;;;;102.88;39.80;;;9.00;99.90;;;7.88;100.00;99250.19;5037804;23;20041;-80
2024/04/01 08:04:04;;;;;;;98.28;42.58;;;9.10;99.90;;;8.01;100.00;99250.31;5008448;28;20048;-79
2024/04/01 08:06:45;;;;;;;96.25;43.40;;;;;;;8.15;100.00;99258.19;5024826;28;20041;-81
2024/04/01 08:12:35;;;;;;;101.22;41.45;;;9.50;99.90;;;8.48;100.00;99258.91;5073868;22;20061;-80
2024/04/01 08:15:02;;;;;;;90.10;41.15;;;9.70;99.90;;;8.62;100.00;99266.78;4982825;28;20062;-80
2024/04/01 08:17:28;;;;;;;118.53;44.35;;;9.80;99.90;;;8.70;100.00;99268.91;5018341;28;20396;-80
2024/04/01 08:20:05;;;;;;;128.38;47.70;;;;;;;8.81;100.00;99267.31;5025691;22;20034;-80
2024/04/01 08:22:46;;;;;;;122.18;46.88;;;9.90;99.90;;;8.93;100.00;99267.47;5011996;28;20095;-79
2024/04/01 08:25:44;;;;;;;153.02;51.72;;;10.10;99.90;;;9.06;100.00;99251.78;4997939;28;20025;-80
2024/04/01 08:32:04;;;;;;;185.82;61.20;;;10.30;99.90;;;9.24;100.00;99251.47;4849517;29;20038;-79
2024/04/01 08:34:41;;;;;;;267.10;77.38;;;10.40;99.90;;;9.28;100.00;99243.38;4849845;29;20049;-81
2024/04/01 08:37:07;;;;;;;346.23;95.28;;;10.40;99.90;;;9.35;100.00;99252.53;4846510;29;20057;-79
2024/04/01 08:39:33;;;;;;;349.25;94.55;;;10.50;99.90;;;9.43;100.00;99252.88;4844594;29;20331;-79
2024/04/01 08:42:51;;;;;;;;;;;;;;;;;;;;;
2024/04/01 08:45:27;;;;;;;318.33;93.60;;;10.70;99.90;;;9.70;100.00;99252.00;5010400;28;20033;-79
2024/04/01 08:48:21;;;;;;;339.40;94.57;;;;;;;9.84;100.00;99250.13;5015543;28;20053;-79
2024/04/01 08:51:32;;;;;;;319.10;92.35;;;11.00;99.90;;;9.96;100.00;99237.97;5002033;28;20039;-80
2024/04/01 08:54:15;;;;;;;258.73;81.20;;;11.10;99.90;;;10.03;100.00;99227.88;4974156;28;20038;-80
2024/04/01 08:56:57;;;;;;;241.30;82.82;;;11.10;99.90;;;10.11;100.00;99227.31;4992397;28;20501;-80
2024/04/01 08:59:36;;;;;;;252.18;83.28;;;11.20;99.90;;;10.17;100.00;99226.91;4992363;28;20041;-79
2024/04/01 09:02:28;;;;;;;267.13;82.40;;;11.30;99.90;;;10.22;100.00;99230.09;4973106;28;20029;-80
2024/04/01 09:04:55;;;;;;;251.38;79.45;;;11.30;99.90;;;10.26;100.00;99219.25;4863495;29;20057;-80
2024/04/01 09:07:32;;;;;;;231.23;75.35;;;11.40;99.90;;;10.31;100.00;99218.94;4879623;29;20112;-78
2024/04/01 09:10:28;;;;;;;189.18;67.25;;;;;;;10.33;100.00;99211.78;4880351;29;20064;-80
2024/04/01 09:12:55;;;;;;;190.73;66.70;;;11.50;99.90;;;10.40;100.00;99223.56;4872663;29;20049;-79
2024/04/01 09:16:05;;;;;;;162.32;61.95;;;11.50;99.90;;;10.47;100.00;99213.44;4863475;29;20037;-80
2024/04/01 09:19:14;;;;;;;171.00;61.90;;;11.60;99.90;;;10.53;100.00;99212.19;4872570;29;20120;-79
2024/04/01 09:21:55;;;;;;;177.90;65.28;;;11.70;99.90;;;10.60;100.00;99203.72;4871071;29;20393;-80
2024/04/01 09:24:55;;;;;;;158.23;59.92;;;11.70;99.90;;;10.65;100.00;99195.53;4875743;29;21142;-79
2024/04/01 09:27:47;;;;;;;154.25;55.65;;;;;;;10.64;100.00;99186.78;4859401;29;20057;-80
2024/04/01 09:30:36;;;;;;;;;;;;;;;;;;;;;
2024/04/01 09:33:05;;;;;;;123.88;51.60;;;11.80;99.90;;;10.71;100.00;99174.00;5014907;28;20516;-81
2024/04/01 09:35:34;;;;;;;120.28;49.80;;;11.90;99.90;;;10.76;100.00;99164.00;5027236;28;20046;-82
2024/04/01 09:41:35;;;;;;;120.75;47.75;;;11.90;99.90;;;10.90;100.00;99164.78;4983633;23;20049;-81
2024/04/01 09:44:01;;;;;;;129.35;47.50;;;12.00;99.90;;;10.85;100.00;99168.59;5014727;28;20405;-81
2024/04/01 09:47:37;;;;;;;115.88;48.03;;;12.00;99.90;;;10.95;100.00;99165.28;5007666;28;20037;-81
2024/04/01 09:50:45;;;;;;;95.90;43.50;;;12.10;99.90;;;10.84;100.00;99164.31;4897555;29;20717;-80
2024/04/01 09:53:44;;;;;;;110.03;46.25;;;12.00;99.90;;;10.82;100.00;99160.94;4809789;29;20042;-81
2024/04/01 09:57:12;;;;;;;107.55;45.80;;;12.00;99.90;;;10.93;100.00;99162.78;4761913;29;20075;-81
2024/04/01 10:00:00;;;;;;;;;;;12.10;99.90;;;10.88;100.00;99160.50;4774396;29;20071;-80
2024/04/01 10:03:06;;;;;;;103.47;42.28;;;12.00;99.90;;;10.58;100.00;99146.91;4778941;29;19970;-80
2024/04/01 10:05:54;;;;;;;111.45;48.22;;;12.00;99.90;;;10.56;100.00;99144.41;4760823;29;20047;-80
2024/04/01 10:08:51;;;;;;;116.47;48.00;;;11.90;99.90;;;10.64;100.00;99157.00;4778457;29;20051;-81
2024/04/01 10:12:04;;;;;;;120.43;48.28;;;11.80;99.90;;;10.46;100.00;99154.72;4760303;30;20055;-81
2024/04/01 10:14:45;;;;;;;99.60;46.03;;;11.80;99.90;;;10.48;100.00;99152.00;4777739;29;20086;-81
2024/04/01 10:18:06;;;;;;;107.45;46.80;;;11.80;99.90;;;10.43;100.00;99149.69;4773186;29;20048;-80
2024/04/01 10:21:11;;;;;;;88.97;45.17;;;11.70;99.90;;;10.27;100.00;99134.09;4783872;29;20047;-80
2024/04/01 10:24:20;;;;;;;77.95;39.65;;;11.60;99.90;;;10.13;100.00;99130.75;4798677;29;20051;-79
2024/04/01 10:27:50;;;;;;;69.05;37.45;;;11.50;99.90;;;10.17;100.00;99140.97;4827740;29;20046;-81
2024/04/01 10:31:01;;;;;;;58.80;34.10;;;11.50;99.90;;;10.19;100.00;99144.31;4891674;29;20067;-80
2024/04/01 10:33:45;;;;;;;60.28;34.13;;;11.50;99.90;;;10.25;100.00;99146.50;4964885;28;20034;-80
2024/04/01 10:37:09;;;;;;;59.47;31.30;;;11.60;99.90;;;10.59;100.00;99138.91;4993218;28;20408;-81
2024/04/01 10:40:04;;;;;;;62.38;29.83;;;11.80;99.90;;;10.78;100.00;99135.78;5011831;28;20237;-80
2024/04/01 10:43:12;;;;;;;56.00;30.00;;;11.90;99.90;;;10.82;100.00;99145.13;4995463;28;20096;-80
2024/04/01 10:46:44;;;;;;;55.33;28.20;;;12.10;99.90;;;11.03;100.00;99137.44;5006416;28;20412;-83
2024/04/01 10:50:14;;;;;;;46.30;25.80;;;12.20;99.90;;;11.19;100.00;99137.16;4928635;28;20027;-80
2024/04/01 10:53:23;;;;;;;53.05;26.90;;;12.30;99.90;;;11.20;100.00;99116.91;4940653;29;20043;-79
2024/04/01 10:56:33;;;;;;;49.70;27.60;;;12.40;99.90;;;11.26;100.00;99111.19;4932624;29;20063;-80
2024/04/01 11:00:05;;;;;;;54.42;27.60;;;12.40;99.90;;;11.30;100.00;99099.47;4947886;29;20031;-83
2024/04/01 11:03:04;;;;;;;56.65;26.98;;;12.50;99.90;;;11.41;100.00;99093.38;4948631;29;20058;-81
2024/04/01 11:06:07;;;;;;;50.63;25.05;;;12.60;99.90;;;11.64;100.00;99091.59;4940249;28;20054;-82
2024/04/01 11:09:23;;;;;;;48.30;22.90;;;12.80;99.90;;;11.82;100.00;99098.09;4935884;29;20508;-84
2024/04/01 11:12:37;;;;;;;47.00;22.88;;;13.10;99.90;;;12.25;100.00;99086.03;4951047;29;20043;-85
2024/04/01 11:15:17;;;;;;;;;;;;;;;;;;;;;
2024/04/01 11:17:51;;;;;;;59.67;21.35;;;13.50;99.90;;;12.47;94.96;99093.06;4933645;28;20031;-82
2024/04/01 11:21:24;;;;;;;43.10;20.08;;;13.50;99.90;;;12.51;93.36;99079.47;4934159;29;20058;-81
2024/04/01 11:24:53;;;;;;;41.95;20.02;;;13.50;99.90;;;12.47;92.52;99093.88;4903457;29;20516;-84
2024/04/01 11:28:23;;;;;;;48.53;19.60;;;13.50;99.90;;;12.42;92.15;99096.06;4897104;29;20051;-84
2024/04/01 11:31:18;;;;;;;51.70;19.52;;;13.50;99.90;;;12.42;91.19;99096.06;4948737;29;20175;-80
2024/04/01 11:34:57;;;;;;;;;;;;;;;;;;;;;
2024/04/01 11:37:40;;;;;;;37.55;18.52;;;13.50;99.90;;;12.41;91.04;99082.97;4911468;29;20040;-80
2024/04/01 11:40:25;;;;;;;38.20;19.80;;;;;;;12.44;90.85;99082.72;4912828;29;20040;-81
2024/04/01 11:43:16;;;;;;;37.63;18.95;;;13.50;99.90;;;12.48;90.33;99081.53;4911539;29;20104;-83
2024/04/01 11:48:35;;;;;;;35.63;18.40;;;13.50;99.90;;;12.54;90.85;99073.09;4873516;29;20041;-80
2024/04/01 11:51:14;;;;;;;38.25;19.75;;;13.60;99.90;;;12.48;88.47;99076.25;4858331;29;20040;-83
2024/04/01 11:53:43;;;;;;;46.55;18.02;;;;;;;12.36;87.59;99072.81;4870754;29;20041;-81
2024/04/01 11:56:38;;;;;;;34.78;18.45;;;;;;;12.24;87.46;99077.25;4856343;29;20061;-84
2024/04/01 11:59:13;;;;;;;48.60;18.48;;;;;;;12.13;88.31;99061.44;4853006;29;20057;-80
2024/04/01 12:01:54;;;;;;;46.65;19.05;;;;;;;12.02;87.88;99064.09;4854331;29;20057;-83
2024/04/01 12:04:20;;;;;;;54.67;19.48;;;;;;;11.97;87.33;99061.00;4849092;29;20053;-81
2024/04/01 12:06:47;;;;;;;43.53;18.13;;;13.10;99.90;;;11.93;87.67;99056.91;4849345;29;20041;-80
2024/04/01 12:10:08;;;;;;;;;;;;;;;;;;;;;
2024/04/01 12:12:48;;;;;;;;;;;;;;;;;;;;;
2024/04/01 12:15:44;;;;;;;42.28;17.92;;;12.90;99.90;;;11.66;87.65;99058.06;4855385;29;20045;-82
2024/04/01 12:18:16;;;;;;;47.08;19.65;;;12.80;99.90;;;11.57;88.43;99058.78;4856308;29;20412;-83
2024/04/01 12:20:55;;;;;;;36.22;18.00;;;12.70;99.90;;;11.55;88.71;99056.25;4853556;29;20041;-80
2024/04/01 12:23:45;;;;;;;47.97;18.85;;;12.70;99.90;;;11.52;88.83;99061.78;4854436;29;20611;-82
2024/04/01 12:26:14;;;;;;;45.10;18.42;;;12.60;99.90;;;11.47;88.79;99061.31;4906554;29;20047;-83
2024/04/01 12:29:03;;;;;;;36.78;17.55;;;12.50;99.90;;;11.32;89.27;99057.16;4916392;29;20110;-83
2024/04/01 12:31:37;;;;;;;38.08;16.13;;;12.50;99.90;;;11.29;89.24;99071.44;4924776;29;20387;-81
2024/04/01 12:34:25;;;;;;;39.67;16.52;;;12.40;99.90;;;11.24;89.95;99074.41;4946162;29;20525;-81
2024/04/01 12:36:54;;;;;;;48.83;17.48;;;12.40;99.90;;;11.18;89.50;99069.59;4867968;29;20053;-81
2024/04/01 12:39:50;;;;;;;41.50;17.98;;;12.30;99.90;;;11.13;90.09;99069.13;4866984;29;20049;-81
2024/04/01 12:42:46;;;;;;;40.83;17.30;;;;;;;10.94;89.81;99056.50;4852699;29;20177;-83
2024/04/01 12:45:51;;;;;;;35.92;18.02;;;;;;;10.92;90.10;99045.22;4855261;29;20049;-81
2024/04/01 12:48:34;;;;;;;41.70;18.00;;;;;;;10.91;90.32;99026.91;4865126;29;20048;-83
2024/04/01 12:51:26;;;;;;;42.72;16.98;;;;;;;10.81;90.52;99017.06;4899524;29;20149;-82
2024/04/01 12:58:29;;;;;;;41.90;17.65;;;11.80;99.90;;;10.54;91.35;99041.03;4846052;29;20549;-81
2024/04/01 13:01:27;;;;;;;43.75;16.33;;;11.70;99.90;;;10.41;92.29;99048.09;4848311;29;20050;-80
2024/04/01 13:04:49;;;;;;;;;;;;;;;;;;;;;
2024/04/01 13:07:53;;;;;;;36.75;16.30;;;11.50;99.90;;;10.34;93.26;99039.81;4812429;29;20050;-80
2024/04/01 13:10:49;;;;;;;37.08;16.23;;;;;;;10.31;93.22;99044.47;4812963;29;20522;-81
2024/04/01 13:14:15;;;;;;;39.13;16.00;;;11.50;99.90;;;10.21;93.26;99026.69;4796609;29;20044;-81